Meteo Giornale » Osservazioni meteo Stati Uniti (USA) » Baker City
ore: 13:53 - Osservazioni Meteo Baker City
Lat. 44° 50' N Lon. 117° 48' W Alt. 1028 metri s.l.m.
28 °C
Sereno
Temp. 24 Ore
2 °C
28 °C
Est/Sud-Est
13 Km/h
Dew point -1 °C
Umidità 15 %
Visibilità 10 Km
Il sole sorge alle ore 06:12
Il sole tramonta alle ore 19:30
| Data e Ora | Cielo e Fenomeni | T °C | DP °C | Um. % | Pres. hPa | Vis. km | Vento km/h | |
|---|---|---|---|---|---|---|---|---|
| Oggi h: 13:53 | Sereno | 28 | -1 | 15 | 1014 | 10 | E/SE 13 | |
| Oggi h: 12:53 | Sereno | 27 | -1 | 15 | 1015 | 10 | E/SE 11.1 | |
| Oggi h: 11:53 | Sereno | 24 | 1 | 22 | 1016 | 10 | N 7.4 | |
| Oggi h: 10:53 | Sereno | 19 | 3 | 34 | 1017 | 13 | N 0 | |
| Oggi h: 09:53 | Foschia | 16 | 2 | 38 | 1017 | 10 | N 0 | |
| Oggi h: 08:53 | Foschia | 12 | 2 | 50 | 1018 | 8 | N 0 | |
| Oggi h: 07:53 | Sereno | 7 | 1 | 65 | 1018 | 10 | N 0 | |
| Oggi h: 06:53 | Sereno | 2 | -1 | 80 | 1017 | 10 | N 5.5 | |
| Oggi h: 05:53 | Sereno | 2 | 1 | 93 | 1017 | 10 | N 0 | |
| Oggi h: 04:53 | Sereno | 2 | 0 | 86 | 1017 | 10 | N 0 | |
| Oggi h: 03:53 | Sereno | 2 | 0 | 86 | 1017 | 10 | N 0 | |
| Oggi h: 02:53 | Sereno | 4 | 1 | 80 | 1017 | 10 | N 0 | |
| Oggi h: 01:53 | Sereno | 4 | 1 | 80 | 1017 | 10 | N 0 | |
| Oggi h: 00:53 | Sereno | 6 | 2 | 75 | 1018 | 10 | N 5.5 | |
| Ieri h: 23:53 | Sereno | 6 | 2 | 75 | 1018 | 10 | N 0 | |
| Ieri h: 22:53 | Sereno | 6 | 2 | 75 | 1018 | 10 | E 7.4 | |
| Ieri h: 21:53 | Sereno | 8 | 2 | 65 | 1018 | 10 | S 7.4 | |
| Ieri h: 20:53 | Poco Nuvoloso | 12 | 3 | 54 | 1017 | 10 | N 5.5 | |
| Ieri h: 19:53 | Sereno | 14 | 3 | 47 | 1017 | 10 | N 0 | |
| Ieri h: 18:53 | Sereno | 18 | 4 | 39 | 1017 | 10 | O 9.3 | |
| Ieri h: 17:53 | Sereno | 21 | 2 | 28 | 1017 | 10 | O/SO 7.4 | |
| Ieri h: 16:53 | Sereno | 22 | 2 | 26 | 1017 | 10 | O/NO 9.3 | |
| Ieri h: 15:53 | Sereno | 22 | 0 | 23 | 1017 | 10 | N 5.5 | |
| Ieri h: 14:53 | Sereno | 22 | 0 | 23 | 1018 | 10 | N 5.5 | |



